Terminal Aerodrome Forecast
Issued by NWS

Current Version | Previous Version | Text Only | Print | Product List | Glossary On
Versions: 1 2 3 4 5 6 7 8 9 10 11 12 13 14 15 16 17 18 19 20 21 22 23 24 25 26 27 28 29
754
FTUS41 KOKX 200532
TAFSWF
TAF
KSWF 200532Z 2006/2112 30010KT P6SM BKN080
     FM201200 31016G23KT P6SM FEW050
     FM201600 32021G29KT P6SM SCT050
     FM210000 32017G24KT P6SM SKC
     FM210200 31011KT P6SM SKC
      AMD NOT SKED=

USA.gov is the U.S. government's official web portal to all federal, state and local government web resources and services.